sensor_id;sensor_type;location;lat;lon;timestamp;P1;durP1;ratioP1;P2;durP2;ratioP2
76194;SDS011;64964;48.694;21.206;2023-02-17T00:01:43;52.70;;;19.17;;
76194;SDS011;64964;48.694;21.206;2023-02-17T00:04:08;50.50;;;19.97;;
76194;SDS011;64964;48.694;21.206;2023-02-17T00:06:34;51.23;;;20.07;;
76194;SDS011;64964;48.694;21.206;2023-02-17T00:09:00;52.33;;;20.55;;
76194;SDS011;64964;48.694;21.206;2023-02-17T00:11:26;50.03;;;19.23;;
76194;SDS011;64964;48.694;21.206;2023-02-17T00:13:55;45.83;;;19.17;;
76194;SDS011;64964;48.694;21.206;2023-02-17T00:16:21;55.47;;;19.47;;
76194;SDS011;64964;48.694;21.206;2023-02-17T00:18:51;46.78;;;19.02;;
76194;SDS011;64964;48.694;21.206;2023-02-17T00:21:23;49.00;;;19.20;;
76194;SDS011;64964;48.694;21.206;2023-02-17T00:23:51;49.88;;;19.95;;
76194;SDS011;64964;48.694;21.206;2023-02-17T00:26:17;47.45;;;19.67;;
76194;SDS011;64964;48.694;21.206;2023-02-17T00:28:44;47.43;;;18.50;;
76194;SDS011;64964;48.694;21.206;2023-02-17T00:31:20;51.40;;;19.40;;
76194;SDS011;64964;48.694;21.206;2023-02-17T00:33:46;55.40;;;20.27;;
76194;SDS011;64964;48.694;21.206;2023-02-17T00:36:15;50.30;;;19.00;;
76194;SDS011;64964;48.694;21.206;2023-02-17T00:38:43;49.85;;;19.75;;
76194;SDS011;64964;48.694;21.206;2023-02-17T00:41:08;52.50;;;19.47;;
76194;SDS011;64964;48.694;21.206;2023-02-17T00:43:34;52.00;;;19.57;;
76194;SDS011;64964;48.694;21.206;2023-02-17T00:45:59;51.33;;;19.95;;
76194;SDS011;64964;48.694;21.206;2023-02-17T00:48:25;50.00;;;18.17;;
76194;SDS011;64964;48.694;21.206;2023-02-17T00:50:50;45.33;;;18.67;;
76194;SDS011;64964;48.694;21.206;2023-02-17T00:53:15;52.60;;;19.93;;
76194;SDS011;64964;48.694;21.206;2023-02-17T00:55:41;49.72;;;19.65;;
76194;SDS011;64964;48.694;21.206;2023-02-17T00:58:06;48.63;;;19.37;;
76194;SDS011;64964;48.694;21.206;2023-02-17T01:00:32;48.37;;;19.63;;
76194;SDS011;64964;48.694;21.206;2023-02-17T01:02:57;47.35;;;17.08;;
76194;SDS011;64964;48.694;21.206;2023-02-17T01:05:23;45.03;;;17.67;;
76194;SDS011;64964;48.694;21.206;2023-02-17T01:07:48;43.60;;;18.93;;
76194;SDS011;64964;48.694;21.206;2023-02-17T01:10:13;48.63;;;18.63;;
76194;SDS011;64964;48.694;21.206;2023-02-17T01:12:39;45.43;;;18.17;;
76194;SDS011;64964;48.694;21.206;2023-02-17T01:15:04;45.43;;;18.60;;
76194;SDS011;64964;48.694;21.206;2023-02-17T01:17:30;44.33;;;17.60;;
76194;SDS011;64964;48.694;21.206;2023-02-17T01:19:56;48.27;;;17.80;;
76194;SDS011;64964;48.694;21.206;2023-02-17T01:22:22;44.25;;;18.08;;
76194;SDS011;64964;48.694;21.206;2023-02-17T01:24:47;44.63;;;17.40;;
76194;SDS011;64964;48.694;21.206;2023-02-17T01:27:13;44.23;;;17.63;;
76194;SDS011;64964;48.694;21.206;2023-02-17T01:29:38;48.27;;;18.33;;
76194;SDS011;64964;48.694;21.206;2023-02-17T01:32:03;42.90;;;17.57;;
76194;SDS011;64964;48.694;21.206;2023-02-17T01:34:29;43.00;;;17.40;;
76194;SDS011;64964;48.694;21.206;2023-02-17T01:36:54;43.37;;;17.27;;
76194;SDS011;64964;48.694;21.206;2023-02-17T01:39:19;43.20;;;17.90;;
76194;SDS011;64964;48.694;21.206;2023-02-17T01:41:45;44.22;;;17.90;;
76194;SDS011;64964;48.694;21.206;2023-02-17T01:44:15;46.83;;;17.63;;
76194;SDS011;64964;48.694;21.206;2023-02-17T01:46:49;50.63;;;17.60;;
76194;SDS011;64964;48.694;21.206;2023-02-17T01:49:27;45.42;;;17.63;;
76194;SDS011;64964;48.694;21.206;2023-02-17T01:52:10;45.83;;;18.70;;
76194;SDS011;64964;48.694;21.206;2023-02-17T01:54:41;42.13;;;17.08;;
76194;SDS011;64964;48.694;21.206;2023-02-17T01:57:12;45.72;;;17.65;;
76194;SDS011;64964;48.694;21.206;2023-02-17T01:59:40;52.13;;;18.75;;
76194;SDS011;64964;48.694;21.206;2023-02-17T02:02:06;47.47;;;17.53;;
76194;SDS011;64964;48.694;21.206;2023-02-17T02:04:32;46.08;;;19.17;;
76194;SDS011;64964;48.694;21.206;2023-02-17T02:07:00;48.58;;;18.75;;
76194;SDS011;64964;48.694;21.206;2023-02-17T02:09:29;46.15;;;18.52;;
76194;SDS011;64964;48.694;21.206;2023-02-17T02:11:59;48.57;;;17.93;;
76194;SDS011;64964;48.694;21.206;2023-02-17T02:14:24;44.90;;;17.35;;
76194;SDS011;64964;48.694;21.206;2023-02-17T02:16:58;46.77;;;17.93;;
76194;SDS011;64964;48.694;21.206;2023-02-17T02:22:39;44.40;;;17.05;;
76194;SDS011;64964;48.694;21.206;2023-02-17T02:25:28;47.50;;;17.17;;
76194;SDS011;64964;48.694;21.206;2023-02-17T02:28:01;43.70;;;17.17;;
76194;SDS011;64964;48.694;21.206;2023-02-17T02:36:10;46.92;;;17.08;;
76194;SDS011;64964;48.694;21.206;2023-02-17T02:41:18;45.60;;;17.80;;
76194;SDS011;64964;48.694;21.206;2023-02-17T02:43:48;49.08;;;18.00;;
76194;SDS011;64964;48.694;21.206;2023-02-17T02:46:14;47.72;;;17.23;;
76194;SDS011;64964;48.694;21.206;2023-02-17T02:48:40;41.83;;;16.53;;
76194;SDS011;64964;48.694;21.206;2023-02-17T03:10:32;43.35;;;16.17;;
76194;SDS011;64964;48.694;21.206;2023-02-17T03:13:00;40.05;;;15.40;;
76194;SDS011;64964;48.694;21.206;2023-02-17T03:17:54;46.70;;;17.77;;
76194;SDS011;64964;48.694;21.206;2023-02-17T03:20:21;42.10;;;15.95;;
76194;SDS011;64964;48.694;21.206;2023-02-17T03:22:46;40.90;;;17.27;;
76194;SDS011;64964;48.694;21.206;2023-02-17T03:25:12;44.63;;;16.27;;
76194;SDS011;64964;48.694;21.206;2023-02-17T03:27:39;41.13;;;15.98;;
76194;SDS011;64964;48.694;21.206;2023-02-17T03:30:04;41.50;;;16.47;;
76194;SDS011;64964;48.694;21.206;2023-02-17T03:32:30;40.65;;;16.70;;
76194;SDS011;64964;48.694;21.206;2023-02-17T03:34:56;39.80;;;16.07;;
76194;SDS011;64964;48.694;21.206;2023-02-17T03:37:21;45.30;;;16.43;;
76194;SDS011;64964;48.694;21.206;2023-02-17T03:39:47;44.63;;;16.67;;
76194;SDS011;64964;48.694;21.206;2023-02-17T03:42:12;44.73;;;17.53;;
76194;SDS011;64964;48.694;21.206;2023-02-17T03:44:37;44.57;;;16.83;;
76194;SDS011;64964;48.694;21.206;2023-02-17T03:47:03;45.30;;;16.90;;
76194;SDS011;64964;48.694;21.206;2023-02-17T03:49:28;42.13;;;15.27;;
76194;SDS011;64964;48.694;21.206;2023-02-17T03:51:54;38.60;;;15.60;;
76194;SDS011;64964;48.694;21.206;2023-02-17T03:54:19;43.80;;;16.70;;
76194;SDS011;64964;48.694;21.206;2023-02-17T03:56:45;45.33;;;16.70;;
76194;SDS011;64964;48.694;21.206;2023-02-17T03:59:10;50.15;;;18.98;;
76194;SDS011;64964;48.694;21.206;2023-02-17T04:01:35;46.70;;;18.97;;
76194;SDS011;64964;48.694;21.206;2023-02-17T04:04:01;53.33;;;19.80;;
76194;SDS011;64964;48.694;21.206;2023-02-17T04:06:26;43.47;;;18.07;;
76194;SDS011;64964;48.694;21.206;2023-02-17T04:08:52;48.50;;;18.40;;
76194;SDS011;64964;48.694;21.206;2023-02-17T04:11:17;49.00;;;18.47;;
76194;SDS011;64964;48.694;21.206;2023-02-17T04:13:43;42.57;;;17.23;;
76194;SDS011;64964;48.694;21.206;2023-02-17T04:16:08;44.60;;;17.80;;
76194;SDS011;64964;48.694;21.206;2023-02-17T04:18:35;44.53;;;17.08;;
76194;SDS011;64964;48.694;21.206;2023-02-17T04:21:01;44.60;;;17.33;;
76194;SDS011;64964;48.694;21.206;2023-02-17T04:23:27;40.67;;;17.02;;
76194;SDS011;64964;48.694;21.206;2023-02-17T04:25:53;43.70;;;17.27;;
76194;SDS011;64964;48.694;21.206;2023-02-17T04:28:18;47.73;;;17.93;;
76194;SDS011;64964;48.694;21.206;2023-02-17T04:30:46;46.20;;;19.02;;
76194;SDS011;64964;48.694;21.206;2023-02-17T04:33:12;55.58;;;19.50;;
76194;SDS011;64964;48.694;21.206;2023-02-17T04:35:38;49.45;;;19.23;;
76194;SDS011;64964;48.694;21.206;2023-02-17T04:38:04;50.17;;;19.47;;
76194;SDS011;64964;48.694;21.206;2023-02-17T04:40:30;50.45;;;20.92;;
76194;SDS011;64964;48.694;21.206;2023-02-17T04:42:56;56.08;;;19.85;;
76194;SDS011;64964;48.694;21.206;2023-02-17T04:45:21;49.17;;;20.03;;
76194;SDS011;64964;48.694;21.206;2023-02-17T04:47:47;55.17;;;22.33;;
76194;SDS011;64964;48.694;21.206;2023-02-17T04:50:13;52.73;;;21.10;;
76194;SDS011;64964;48.694;21.206;2023-02-17T04:52:38;59.05;;;22.10;;
76194;SDS011;64964;48.694;21.206;2023-02-17T04:55:04;60.67;;;21.53;;
76194;SDS011;64964;48.694;21.206;2023-02-17T04:57:30;61.08;;;23.63;;
76194;SDS011;64964;48.694;21.206;2023-02-17T04:59:56;64.13;;;24.67;;
76194;SDS011;64964;48.694;21.206;2023-02-17T05:02:21;62.33;;;23.03;;
76194;SDS011;64964;48.694;21.206;2023-02-17T05:04:47;56.70;;;22.73;;
76194;SDS011;64964;48.694;21.206;2023-02-17T05:07:12;56.67;;;22.13;;
76194;SDS011;64964;48.694;21.206;2023-02-17T05:09:37;56.00;;;21.80;;
76194;SDS011;64964;48.694;21.206;2023-02-17T05:12:03;61.50;;;23.00;;
76194;SDS011;64964;48.694;21.206;2023-02-17T05:14:30;56.08;;;21.63;;
76194;SDS011;64964;48.694;21.206;2023-02-17T05:16:55;64.03;;;23.75;;
76194;SDS011;64964;48.694;21.206;2023-02-17T05:19:21;63.60;;;21.53;;
76194;SDS011;64964;48.694;21.206;2023-02-17T05:21:46;54.60;;;21.70;;
76194;SDS011;64964;48.694;21.206;2023-02-17T05:24:11;63.70;;;21.80;;
76194;SDS011;64964;48.694;21.206;2023-02-17T05:26:37;59.20;;;22.07;;
76194;SDS011;64964;48.694;21.206;2023-02-17T05:29:02;56.83;;;21.52;;
76194;SDS011;64964;48.694;21.206;2023-02-17T05:31:28;59.53;;;21.37;;
76194;SDS011;64964;48.694;21.206;2023-02-17T05:33:53;66.93;;;24.50;;
76194;SDS011;64964;48.694;21.206;2023-02-17T05:36:19;57.63;;;23.30;;
76194;SDS011;64964;48.694;21.206;2023-02-17T05:38:45;60.50;;;25.73;;
76194;SDS011;64964;48.694;21.206;2023-02-17T05:41:14;55.37;;;21.23;;
76194;SDS011;64964;48.694;21.206;2023-02-17T05:43:40;57.38;;;22.15;;
76194;SDS011;64964;48.694;21.206;2023-02-17T05:46:05;69.00;;;25.20;;
76194;SDS011;64964;48.694;21.206;2023-02-17T05:48:31;73.82;;;26.40;;
76194;SDS011;64964;48.694;21.206;2023-02-17T05:50:56;68.93;;;25.50;;
76194;SDS011;64964;48.694;21.206;2023-02-17T05:53:22;63.40;;;23.43;;
76194;SDS011;64964;48.694;21.206;2023-02-17T05:55:47;58.10;;;22.90;;
76194;SDS011;64964;48.694;21.206;2023-02-17T05:58:12;61.27;;;23.10;;
76194;SDS011;64964;48.694;21.206;2023-02-17T06:00:37;58.27;;;20.93;;
76194;SDS011;64964;48.694;21.206;2023-02-17T06:03:03;52.20;;;21.43;;
76194;SDS011;64964;48.694;21.206;2023-02-17T06:05:28;57.70;;;22.60;;
76194;SDS011;64964;48.694;21.206;2023-02-17T06:07:54;60.47;;;23.77;;
76194;SDS011;64964;48.694;21.206;2023-02-17T06:10:19;61.83;;;22.77;;
76194;SDS011;64964;48.694;21.206;2023-02-17T06:12:44;69.60;;;24.60;;
76194;SDS011;64964;48.694;21.206;2023-02-17T06:15:10;63.50;;;24.27;;
76194;SDS011;64964;48.694;21.206;2023-02-17T06:17:35;60.07;;;22.60;;
76194;SDS011;64964;48.694;21.206;2023-02-17T06:20:03;52.47;;;20.83;;
76194;SDS011;64964;48.694;21.206;2023-02-17T06:22:29;50.35;;;20.27;;
76194;SDS011;64964;48.694;21.206;2023-02-17T06:24:54;50.73;;;20.03;;
76194;SDS011;64964;48.694;21.206;2023-02-17T06:27:20;54.80;;;21.27;;
76194;SDS011;64964;48.694;21.206;2023-02-17T06:29:45;51.55;;;21.10;;
76194;SDS011;64964;48.694;21.206;2023-02-17T06:32:10;57.43;;;22.83;;
76194;SDS011;64964;48.694;21.206;2023-02-17T06:34:36;60.07;;;23.33;;
76194;SDS011;64964;48.694;21.206;2023-02-17T06:37:01;57.07;;;23.03;;
76194;SDS011;64964;48.694;21.206;2023-02-17T06:39:27;57.67;;;23.50;;
76194;SDS011;64964;48.694;21.206;2023-02-17T06:41:52;57.00;;;22.10;;
76194;SDS011;64964;48.694;21.206;2023-02-17T06:44:17;65.93;;;24.43;;
76194;SDS011;64964;48.694;21.206;2023-02-17T06:46:43;57.37;;;21.90;;
76194;SDS011;64964;48.694;21.206;2023-02-17T06:49:10;65.15;;;23.33;;
76194;SDS011;64964;48.694;21.206;2023-02-17T06:51:36;70.30;;;25.37;;
76194;SDS011;64964;48.694;21.206;2023-02-17T06:54:01;62.83;;;23.30;;
76194;SDS011;64964;48.694;21.206;2023-02-17T06:56:27;66.43;;;24.65;;
76194;SDS011;64964;48.694;21.206;2023-02-17T06:58:52;64.57;;;23.27;;
76194;SDS011;64964;48.694;21.206;2023-02-17T07:01:20;61.30;;;23.57;;
76194;SDS011;64964;48.694;21.206;2023-02-17T07:03:47;63.30;;;24.73;;
76194;SDS011;64964;48.694;21.206;2023-02-17T07:06:12;94.13;;;28.90;;
76194;SDS011;64964;48.694;21.206;2023-02-17T07:08:38;102.00;;;30.45;;
76194;SDS011;64964;48.694;21.206;2023-02-17T07:11:07;95.93;;;28.20;;
76194;SDS011;64964;48.694;21.206;2023-02-17T07:13:34;97.95;;;30.33;;
76194;SDS011;64964;48.694;21.206;2023-02-17T07:15:59;96.50;;;30.03;;
76194;SDS011;64964;48.694;21.206;2023-02-17T07:18:25;92.30;;;29.23;;
76194;SDS011;64964;48.694;21.206;2023-02-17T07:20:50;106.13;;;31.63;;
76194;SDS011;64964;48.694;21.206;2023-02-17T07:23:16;97.33;;;28.57;;
76194;SDS011;64964;48.694;21.206;2023-02-17T07:25:42;91.70;;;29.92;;
76194;SDS011;64964;48.694;21.206;2023-02-17T07:28:08;87.43;;;28.63;;
76194;SDS011;64964;48.694;21.206;2023-02-17T07:30:40;77.53;;;25.57;;
76194;SDS011;64964;48.694;21.206;2023-02-17T07:33:07;73.57;;;26.05;;
76194;SDS011;64964;48.694;21.206;2023-02-17T07:35:33;80.95;;;26.52;;
76194;SDS011;64964;48.694;21.206;2023-02-17T07:37:59;71.07;;;25.93;;
76194;SDS011;64964;48.694;21.206;2023-02-17T07:40:26;91.35;;;28.67;;
76194;SDS011;64964;48.694;21.206;2023-02-17T07:42:52;83.30;;;27.55;;
76194;SDS011;64964;48.694;21.206;2023-02-17T07:45:17;84.43;;;26.95;;
76194;SDS011;64964;48.694;21.206;2023-02-17T07:47:43;75.67;;;25.53;;
76194;SDS011;64964;48.694;21.206;2023-02-17T07:50:09;78.27;;;27.33;;
76194;SDS011;64964;48.694;21.206;2023-02-17T07:52:34;77.00;;;27.00;;
76194;SDS011;64964;48.694;21.206;2023-02-17T07:55:00;74.07;;;26.80;;
76194;SDS011;64964;48.694;21.206;2023-02-17T07:57:26;96.07;;;28.27;;
76194;SDS011;64964;48.694;21.206;2023-02-17T07:59:51;86.73;;;29.57;;
76194;SDS011;64964;48.694;21.206;2023-02-17T08:02:16;97.73;;;32.83;;
76194;SDS011;64964;48.694;21.206;2023-02-17T08:04:42;98.20;;;33.63;;
76194;SDS011;64964;48.694;21.206;2023-02-17T08:07:07;91.47;;;32.83;;
76194;SDS011;64964;48.694;21.206;2023-02-17T08:09:33;79.33;;;28.70;;
76194;SDS011;64964;48.694;21.206;2023-02-17T08:12:18;71.95;;;26.48;;
76194;SDS011;64964;48.694;21.206;2023-02-17T08:15:03;70.53;;;25.10;;
76194;SDS011;64964;48.694;21.206;2023-02-17T08:17:31;75.63;;;26.42;;
76194;SDS011;64964;48.694;21.206;2023-02-17T08:19:56;72.17;;;26.27;;
76194;SDS011;64964;48.694;21.206;2023-02-17T08:22:21;77.60;;;26.30;;
76194;SDS011;64964;48.694;21.206;2023-02-17T08:24:47;75.67;;;27.60;;
76194;SDS011;64964;48.694;21.206;2023-02-17T08:27:13;79.87;;;25.23;;
76194;SDS011;64964;48.694;21.206;2023-02-17T08:29:39;65.18;;;22.65;;
76194;SDS011;64964;48.694;21.206;2023-02-17T08:32:04;70.07;;;25.40;;
76194;SDS011;64964;48.694;21.206;2023-02-17T08:34:30;62.13;;;21.80;;
76194;SDS011;64964;48.694;21.206;2023-02-17T08:36:59;56.33;;;21.15;;
76194;SDS011;64964;48.694;21.206;2023-02-17T08:39:28;60.67;;;22.02;;
76194;SDS011;64964;48.694;21.206;2023-02-17T08:41:54;58.97;;;24.07;;
76194;SDS011;64964;48.694;21.206;2023-02-17T08:44:19;61.03;;;24.10;;
76194;SDS011;64964;48.694;21.206;2023-02-17T08:46:46;59.47;;;23.50;;
76194;SDS011;64964;48.694;21.206;2023-02-17T08:49:13;61.30;;;23.58;;
76194;SDS011;64964;48.694;21.206;2023-02-17T08:51:40;68.00;;;25.53;;
76194;SDS011;64964;48.694;21.206;2023-02-17T08:54:06;64.88;;;25.30;;
76194;SDS011;64964;48.694;21.206;2023-02-17T08:56:34;62.95;;;23.25;;
76194;SDS011;64964;48.694;21.206;2023-02-17T08:59:01;59.00;;;22.33;;
76194;SDS011;64964;48.694;21.206;2023-02-17T09:01:26;59.20;;;22.58;;
76194;SDS011;64964;48.694;21.206;2023-02-17T09:03:52;61.87;;;24.63;;
76194;SDS011;64964;48.694;21.206;2023-02-17T09:06:19;68.43;;;25.90;;
76194;SDS011;64964;48.694;21.206;2023-02-17T09:08:45;68.03;;;25.63;;
76194;SDS011;64964;48.694;21.206;2023-02-17T09:11:11;62.23;;;23.70;;
76194;SDS011;64964;48.694;21.206;2023-02-17T09:13:39;67.70;;;26.52;;
76194;SDS011;64964;48.694;21.206;2023-02-17T09:16:05;65.55;;;25.95;;
76194;SDS011;64964;48.694;21.206;2023-02-17T09:18:31;62.55;;;25.00;;
76194;SDS011;64964;48.694;21.206;2023-02-17T09:20:57;70.70;;;26.00;;
76194;SDS011;64964;48.694;21.206;2023-02-17T09:23:24;93.22;;;32.53;;
76194;SDS011;64964;48.694;21.206;2023-02-17T09:25:59;92.63;;;33.70;;
76194;SDS011;64964;48.694;21.206;2023-02-17T09:28:26;79.13;;;30.73;;
76194;SDS011;64964;48.694;21.206;2023-02-17T09:30:51;73.55;;;29.23;;
76194;SDS011;64964;48.694;21.206;2023-02-17T09:33:17;70.63;;;26.67;;
76194;SDS011;64964;48.694;21.206;2023-02-17T09:35:42;46.73;;;19.77;;
76194;SDS011;64964;48.694;21.206;2023-02-17T09:38:08;63.33;;;27.38;;
76194;SDS011;64964;48.694;21.206;2023-02-17T09:40:40;55.33;;;22.80;;
76194;SDS011;64964;48.694;21.206;2023-02-17T09:43:11;64.53;;;24.13;;
76194;SDS011;64964;48.694;21.206;2023-02-17T09:45:39;62.75;;;24.67;;
76194;SDS011;64964;48.694;21.206;2023-02-17T09:48:09;58.97;;;23.50;;
76194;SDS011;64964;48.694;21.206;2023-02-17T09:53:07;63.87;;;24.77;;
76194;SDS011;64964;48.694;21.206;2023-02-17T09:55:43;58.78;;;23.05;;
76194;SDS011;64964;48.694;21.206;2023-02-17T10:00:51;58.92;;;23.48;;
76194;SDS011;64964;48.694;21.206;2023-02-17T10:09:09;68.63;;;25.75;;
76194;SDS011;64964;48.694;21.206;2023-02-17T10:12:00;66.63;;;25.48;;
76194;SDS011;64964;48.694;21.206;2023-02-17T10:14:29;77.13;;;29.25;;
76194;SDS011;64964;48.694;21.206;2023-02-17T10:17:10;73.18;;;28.77;;
76194;SDS011;64964;48.694;21.206;2023-02-17T10:19:52;73.03;;;29.20;;
76194;SDS011;64964;48.694;21.206;2023-02-17T10:22:23;71.65;;;27.80;;
76194;SDS011;64964;48.694;21.206;2023-02-17T10:24:50;71.40;;;28.52;;
76194;SDS011;64964;48.694;21.206;2023-02-17T10:35:40;88.22;;;31.70;;
76194;SDS011;64964;48.694;21.206;2023-02-17T10:38:15;91.55;;;33.22;;
76194;SDS011;64964;48.694;21.206;2023-02-17T10:40:46;74.93;;;26.43;;
76194;SDS011;64964;48.694;21.206;2023-02-17T10:43:15;78.85;;;27.30;;
76194;SDS011;64964;48.694;21.206;2023-02-17T10:45:46;80.65;;;30.70;;
76194;SDS011;64964;48.694;21.206;2023-02-17T10:48:31;82.78;;;29.60;;
76194;SDS011;64964;48.694;21.206;2023-02-17T10:50:58;68.45;;;27.42;;
76194;SDS011;64964;48.694;21.206;2023-02-17T10:53:35;74.40;;;26.93;;
76194;SDS011;64964;48.694;21.206;2023-02-17T10:56:16;68.60;;;27.75;;
76194;SDS011;64964;48.694;21.206;2023-02-17T10:58:50;70.97;;;26.70;;
76194;SDS011;64964;48.694;21.206;2023-02-17T11:01:19;68.65;;;25.08;;
76194;SDS011;64964;48.694;21.206;2023-02-17T11:03:57;69.72;;;25.83;;
76194;SDS011;64964;48.694;21.206;2023-02-17T11:06:27;78.33;;;27.53;;
76194;SDS011;64964;48.694;21.206;2023-02-17T11:08:58;73.63;;;27.25;;
76194;SDS011;64964;48.694;21.206;2023-02-17T11:11:33;70.40;;;26.30;;
76194;SDS011;64964;48.694;21.206;2023-02-17T11:16:38;76.50;;;26.25;;
76194;SDS011;64964;48.694;21.206;2023-02-17T11:19:17;72.70;;;26.27;;
76194;SDS011;64964;48.694;21.206;2023-02-17T11:21:43;68.18;;;23.45;;
76194;SDS011;64964;48.694;21.206;2023-02-17T11:24:09;69.47;;;25.00;;
76194;SDS011;64964;48.694;21.206;2023-02-17T11:26:35;64.30;;;24.42;;
76194;SDS011;64964;48.694;21.206;2023-02-17T11:31:33;70.47;;;25.30;;
76194;SDS011;64964;48.694;21.206;2023-02-17T11:34:09;68.40;;;26.67;;
76194;SDS011;64964;48.694;21.206;2023-02-17T11:36:35;69.93;;;25.80;;
76194;SDS011;64964;48.694;21.206;2023-02-17T11:39:02;70.53;;;27.33;;
76194;SDS011;64964;48.694;21.206;2023-02-17T11:41:41;74.18;;;26.00;;
76194;SDS011;64964;48.694;21.206;2023-02-17T11:44:07;63.00;;;23.63;;
76194;SDS011;64964;48.694;21.206;2023-02-17T11:46:42;70.80;;;26.30;;
76194;SDS011;64964;48.694;21.206;2023-02-17T11:51:51;66.78;;;26.70;;
76194;SDS011;64964;48.694;21.206;2023-02-17T11:54:22;66.27;;;27.53;;
76194;SDS011;64964;48.694;21.206;2023-02-17T12:22:26;73.13;;;26.87;;
76194;SDS011;64964;48.694;21.206;2023-02-17T12:27:39;70.03;;;26.30;;
76194;SDS011;64964;48.694;21.206;2023-02-17T12:35:54;71.10;;;26.57;;
76194;SDS011;64964;48.694;21.206;2023-02-17T12:41:22;65.68;;;25.52;;
76194;SDS011;64964;48.694;21.206;2023-02-17T12:46:33;74.13;;;27.45;;
76194;SDS011;64964;48.694;21.206;2023-02-17T12:49:12;72.07;;;27.53;;
76194;SDS011;64964;48.694;21.206;2023-02-17T12:54:23;70.93;;;26.77;;
76194;SDS011;64964;48.694;21.206;2023-02-17T12:59:52;70.65;;;27.27;;
76194;SDS011;64964;48.694;21.206;2023-02-17T13:02:19;60.93;;;25.07;;
76194;SDS011;64964;48.694;21.206;2023-02-17T13:04:50;67.55;;;27.15;;
76194;SDS011;64964;48.694;21.206;2023-02-17T13:15:44;68.27;;;26.73;;
76194;SDS011;64964;48.694;21.206;2023-02-17T13:18:24;69.80;;;27.30;;
76194;SDS011;64964;48.694;21.206;2023-02-17T13:23:27;67.72;;;27.52;;
76194;SDS011;64964;48.694;21.206;2023-02-17T13:28:34;68.23;;;27.10;;
76194;SDS011;64964;48.694;21.206;2023-02-17T13:31:17;66.65;;;26.40;;
76194;SDS011;64964;48.694;21.206;2023-02-17T13:33:52;67.10;;;27.70;;
76194;SDS011;64964;48.694;21.206;2023-02-17T13:36:21;66.78;;;26.95;;
76194;SDS011;64964;48.694;21.206;2023-02-17T13:39:00;72.43;;;27.83;;
76194;SDS011;64964;48.694;21.206;2023-02-17T13:41:42;68.90;;;26.07;;
76194;SDS011;64964;48.694;21.206;2023-02-17T13:47:21;69.00;;;26.95;;
76194;SDS011;64964;48.694;21.206;2023-02-17T13:49:54;66.70;;;26.85;;
76194;SDS011;64964;48.694;21.206;2023-02-17T13:52:22;72.43;;;28.50;;
76194;SDS011;64964;48.694;21.206;2023-02-17T13:57:23;66.40;;;26.27;;
76194;SDS011;64964;48.694;21.206;2023-02-17T14:00:03;63.67;;;26.73;;
76194;SDS011;64964;48.694;21.206;2023-02-17T14:02:45;68.13;;;26.23;;
76194;SDS011;64964;48.694;21.206;2023-02-17T14:07:58;71.30;;;28.07;;
76194;SDS011;64964;48.694;21.206;2023-02-17T14:10:30;68.97;;;29.15;;
76194;SDS011;64964;48.694;21.206;2023-02-17T14:12:56;84.30;;;39.60;;
76194;SDS011;64964;48.694;21.206;2023-02-17T14:15:24;68.70;;;28.55;;
76194;SDS011;64964;48.694;21.206;2023-02-17T14:17:51;64.32;;;27.70;;
76194;SDS011;64964;48.694;21.206;2023-02-17T14:20:27;62.37;;;25.77;;
76194;SDS011;64964;48.694;21.206;2023-02-17T14:23:10;68.13;;;28.38;;
76194;SDS011;64964;48.694;21.206;2023-02-17T14:25:39;63.83;;;25.97;;
76194;SDS011;64964;48.694;21.206;2023-02-17T14:28:24;58.67;;;25.83;;
76194;SDS011;64964;48.694;21.206;2023-02-17T14:30:51;63.63;;;26.92;;
76194;SDS011;64964;48.694;21.206;2023-02-17T14:35:55;72.67;;;27.43;;
76194;SDS011;64964;48.694;21.206;2023-02-17T14:38:33;54.95;;;22.88;;
76194;SDS011;64964;48.694;21.206;2023-02-17T14:41:01;71.57;;;30.02;;
76194;SDS011;64964;48.694;21.206;2023-02-17T14:43:27;64.80;;;27.23;;
76194;SDS011;64964;48.694;21.206;2023-02-17T14:45:53;72.35;;;27.48;;
76194;SDS011;64964;48.694;21.206;2023-02-17T14:48:18;84.53;;;32.37;;
76194;SDS011;64964;48.694;21.206;2023-02-17T14:50:44;85.18;;;34.92;;
76194;SDS011;64964;48.694;21.206;2023-02-17T14:53:12;70.13;;;30.20;;
76194;SDS011;64964;48.694;21.206;2023-02-17T14:55:44;73.00;;;30.40;;
76194;SDS011;64964;48.694;21.206;2023-02-17T14:58:17;89.20;;;35.58;;
76194;SDS011;64964;48.694;21.206;2023-02-17T15:00:45;77.18;;;31.00;;
76194;SDS011;64964;48.694;21.206;2023-02-17T15:03:12;79.95;;;33.22;;
76194;SDS011;64964;48.694;21.206;2023-02-17T15:05:37;85.40;;;33.20;;
76194;SDS011;64964;48.694;21.206;2023-02-17T15:08:03;81.70;;;33.57;;
76194;SDS011;64964;48.694;21.206;2023-02-17T15:10:28;85.93;;;35.47;;
76194;SDS011;64964;48.694;21.206;2023-02-17T15:12:54;84.07;;;35.72;;
76194;SDS011;64964;48.694;21.206;2023-02-17T15:15:20;83.83;;;32.87;;
76194;SDS011;64964;48.694;21.206;2023-02-17T15:17:46;83.82;;;32.75;;
76194;SDS011;64964;48.694;21.206;2023-02-17T15:20:12;83.13;;;32.80;;
76194;SDS011;64964;48.694;21.206;2023-02-17T15:22:39;70.17;;;29.40;;
76194;SDS011;64964;48.694;21.206;2023-02-17T15:25:16;86.47;;;34.80;;
76194;SDS011;64964;48.694;21.206;2023-02-17T15:27:43;84.13;;;34.60;;
76194;SDS011;64964;48.694;21.206;2023-02-17T15:30:10;73.60;;;29.48;;
76194;SDS011;64964;48.694;21.206;2023-02-17T15:32:37;91.30;;;34.78;;
76194;SDS011;64964;48.694;21.206;2023-02-17T15:35:09;85.20;;;36.60;;
76194;SDS011;64964;48.694;21.206;2023-02-17T15:37:48;74.95;;;31.05;;
76194;SDS011;64964;48.694;21.206;2023-02-17T15:40:18;89.82;;;37.85;;
76194;SDS011;64964;48.694;21.206;2023-02-17T15:42:49;93.28;;;38.88;;
76194;SDS011;64964;48.694;21.206;2023-02-17T15:45:19;99.60;;;38.50;;
76194;SDS011;64964;48.694;21.206;2023-02-17T15:47:48;108.63;;;40.05;;
76194;SDS011;64964;48.694;21.206;2023-02-17T15:50:16;97.55;;;38.05;;
76194;SDS011;64964;48.694;21.206;2023-02-17T15:52:50;96.35;;;38.67;;
76194;SDS011;64964;48.694;21.206;2023-02-17T15:55:16;89.00;;;36.45;;
76194;SDS011;64964;48.694;21.206;2023-02-17T15:57:46;102.20;;;40.50;;
76194;SDS011;64964;48.694;21.206;2023-02-17T16:02:42;91.22;;;35.10;;
76194;SDS011;64964;48.694;21.206;2023-02-17T16:05:11;90.57;;;36.93;;
76194;SDS011;64964;48.694;21.206;2023-02-17T16:07:37;88.28;;;37.15;;
76194;SDS011;64964;48.694;21.206;2023-02-17T16:10:03;91.13;;;36.93;;
76194;SDS011;64964;48.694;21.206;2023-02-17T16:12:29;83.57;;;33.92;;
76194;SDS011;64964;48.694;21.206;2023-02-17T16:14:55;84.40;;;34.03;;
76194;SDS011;64964;48.694;21.206;2023-02-17T16:17:21;86.95;;;34.95;;
76194;SDS011;64964;48.694;21.206;2023-02-17T16:19:47;80.63;;;33.87;;
76194;SDS011;64964;48.694;21.206;2023-02-17T16:22:12;81.63;;;34.93;;
76194;SDS011;64964;48.694;21.206;2023-02-17T16:24:38;89.07;;;35.88;;
76194;SDS011;64964;48.694;21.206;2023-02-17T16:27:04;82.20;;;35.73;;